createdAt,value
2023-03-23T15:59:55.865Z,8.45
2023-03-23T16:02:25.154Z,6.88
2023-03-23T16:04:52.787Z,5.10
2023-03-23T16:07:22.435Z,6.55
2023-03-23T16:09:49.720Z,4.65
2023-03-23T16:12:17.901Z,5.57
2023-03-23T16:14:45.404Z,6.50
2023-03-23T16:17:15.928Z,6.85
2023-03-23T16:19:43.099Z,9.68
2023-03-23T16:22:10.733Z,12.77
2023-03-23T16:24:38.552Z,10.68
2023-03-23T16:27:06.104Z,9.20
2023-03-23T16:29:54.141Z,9.52
2023-03-23T16:32:20.877Z,7.18
2023-03-23T16:34:48.213Z,8.48
2023-03-23T16:37:16.732Z,8.15
2023-03-23T16:39:43.950Z,6.45
2023-03-23T16:42:11.179Z,6.03
2023-03-23T16:44:38.481Z,8.95
2023-03-23T16:47:05.964Z,7.57
2023-03-23T16:49:33.181Z,13.05
2023-03-23T16:52:00.624Z,8.68
2023-03-23T16:54:27.928Z,8.18
2023-03-23T16:56:55.332Z,9.15
2023-03-23T16:59:22.541Z,10.02
2023-03-23T17:01:50.000Z,11.45
2023-03-23T17:04:17.265Z,11.77
2023-03-23T17:06:44.475Z,12.75
2023-03-23T17:09:11.728Z,15.25
2023-03-23T17:11:38.957Z,16.23
2023-03-23T17:14:06.360Z,16.83
2023-03-23T17:16:33.597Z,17.48
2023-03-23T17:19:01.126Z,11.63
2023-03-23T17:21:28.317Z,8.73
2023-03-23T17:23:55.606Z,9.75
2023-03-23T17:26:22.839Z,8.40
2023-03-23T17:28:50.087Z,8.23
2023-03-23T17:31:17.555Z,8.13
2023-03-23T17:33:44.803Z,9.47
2023-03-23T17:36:12.060Z,12.48
2023-03-23T17:38:39.383Z,11.82
2023-03-23T17:41:11.377Z,9.60
2023-03-23T17:43:41.155Z,8.73
2023-03-23T17:46:08.600Z,7.90
2023-03-23T17:48:36.321Z,9.63
2023-03-23T17:51:04.052Z,13.00
2023-03-23T17:53:32.188Z,22.63
2023-03-23T17:55:59.497Z,21.17
2023-03-23T17:58:27.094Z,41.03
2023-03-23T18:00:55.405Z,76.85
2023-03-23T18:03:23.413Z,99.20
2023-03-23T18:05:52.291Z,157.70
2023-03-23T18:08:19.637Z,73.40
2023-03-23T18:10:46.960Z,50.58
2023-03-23T18:13:14.164Z,38.33
2023-03-23T18:15:46.573Z,48.05
2023-03-23T18:18:14.277Z,37.75
2023-03-23T18:20:41.502Z,31.10
2023-03-23T18:23:08.720Z,27.33
2023-03-23T18:25:35.942Z,24.52
2023-03-23T18:28:05.979Z,28.38
2023-03-23T18:30:35.083Z,25.25
2023-03-23T18:33:02.349Z,18.08
2023-03-23T18:35:29.585Z,14.90
2023-03-23T18:37:56.965Z,23.83
2023-03-23T18:40:24.681Z,20.73
2023-03-23T18:42:52.186Z,19.77
2023-03-23T18:45:19.640Z,20.67
2023-03-23T18:47:47.248Z,15.98
2023-03-23T18:50:14.577Z,18.42
2023-03-23T18:52:42.497Z,16.38
2023-03-23T18:55:09.905Z,19.98
2023-03-23T18:57:39.287Z,22.45
2023-03-23T19:00:08.244Z,23.33
2023-03-23T19:02:36.245Z,15.98
2023-03-23T19:05:03.466Z,15.73
2023-03-23T19:07:31.555Z,15.80
2023-03-23T19:09:58.820Z,19.05
2023-03-23T19:12:26.107Z,15.98
2023-03-23T19:14:53.423Z,14.00
2023-03-23T19:17:20.718Z,10.30
2023-03-23T19:19:48.640Z,13.00
2023-03-23T19:22:15.817Z,11.40
2023-03-23T19:24:42.993Z,11.18
2023-03-23T19:27:11.040Z,9.70
2023-03-23T19:29:38.482Z,8.80
2023-03-23T19:32:06.452Z,10.73
2023-03-23T19:34:33.795Z,18.00
2023-03-23T19:37:05.981Z,14.07
2023-03-23T19:39:35.079Z,13.48
2023-03-23T19:42:02.602Z,10.88
2023-03-23T19:44:31.467Z,13.02
2023-03-23T19:46:59.054Z,9.48
2023-03-23T19:49:26.756Z,10.50
2023-03-23T19:52:07.167Z,10.60
2023-03-23T19:54:44.362Z,11.70
2023-03-23T19:57:12.139Z,12.20
2023-03-23T19:59:42.668Z,15.23
2023-03-23T20:02:12.595Z,19.92
2023-03-23T20:04:40.149Z,19.63
2023-03-23T20:07:08.577Z,20.90
2023-03-23T20:09:36.074Z,15.93
2023-03-23T20:12:04.902Z,18.33
2023-03-23T20:14:32.596Z,15.93
2023-03-23T20:16:59.777Z,18.08
2023-03-23T20:19:26.940Z,18.45
2023-03-23T20:21:54.111Z,17.33
2023-03-23T20:24:21.360Z,18.50
2023-03-23T20:26:48.633Z,23.17
2023-03-23T20:29:17.260Z,24.92
2023-03-23T20:31:46.526Z,36.10
2023-03-23T20:34:29.021Z,28.35
2023-03-23T20:36:57.801Z,21.23
2023-03-23T20:39:26.369Z,15.95
2023-03-23T20:41:58.562Z,20.20
2023-03-23T20:44:27.720Z,20.07
2023-03-23T20:46:55.518Z,18.90
2023-03-23T20:49:22.938Z,24.90
2023-03-23T20:51:50.804Z,27.70
2023-03-23T20:54:19.742Z,29.10
2023-03-23T20:56:47.698Z,31.90
2023-03-23T20:59:15.542Z,20.20
2023-03-23T21:01:43.796Z,18.33
2023-03-23T21:04:15.315Z,22.17
2023-03-23T21:06:43.925Z,20.90
2023-03-23T21:09:12.144Z,18.00
2023-03-23T21:11:40.271Z,16.97
2023-03-23T21:14:10.676Z,19.37
2023-03-23T21:16:38.179Z,18.57
2023-03-23T21:19:06.192Z,17.53
2023-03-23T21:21:34.207Z,16.80
2023-03-23T21:24:01.483Z,18.93
2023-03-23T21:26:30.042Z,15.50
2023-03-23T21:29:00.322Z,9.87
2023-03-23T21:31:30.759Z,11.57
2023-03-23T21:34:01.011Z,13.30
2023-03-23T21:36:28.680Z,10.33
2023-03-23T21:38:56.481Z,9.33
2023-03-23T21:41:24.173Z,8.27
2023-03-23T21:43:51.589Z,10.47
2023-03-23T21:46:18.847Z,10.80
2023-03-23T21:48:51.272Z,13.97
2023-03-23T21:51:21.334Z,10.33
2023-03-23T21:53:48.724Z,13.00
2023-03-23T21:56:16.879Z,14.30
2023-03-23T21:58:44.125Z,12.90
2023-03-23T22:01:12.927Z,14.23
2023-03-23T22:03:41.111Z,12.27
2023-03-23T22:06:13.458Z,11.80
2023-03-23T22:08:43.630Z,14.47
2023-03-23T22:11:31.218Z,12.13
2023-03-23T22:14:00.234Z,16.40
2023-03-23T22:16:28.022Z,15.70
2023-03-23T22:18:56.951Z,15.03
2023-03-23T22:21:27.241Z,18.37
2023-03-23T22:23:56.037Z,15.33
2023-03-23T22:26:24.268Z,15.33
2023-03-23T22:28:52.096Z,10.97
2023-03-23T22:31:23.866Z,10.07
2023-03-23T22:33:54.265Z,10.53
2023-03-23T22:36:24.437Z,12.17
2023-03-23T22:38:52.079Z,13.20
2023-03-23T22:41:23.725Z,13.40
2023-03-23T22:43:51.062Z,14.27
2023-03-23T22:46:18.573Z,13.60
2023-03-23T22:48:46.234Z,15.40
2023-03-23T22:51:15.236Z,17.57
2023-03-23T22:53:42.569Z,13.03
2023-03-23T22:56:11.165Z,16.80
2023-03-23T22:58:38.882Z,16.47
2023-03-23T23:01:08.836Z,13.10
2023-03-23T23:03:36.989Z,14.97
2023-03-23T23:06:04.419Z,15.07
2023-03-23T23:08:33.433Z,12.93
2023-03-23T23:11:03.392Z,18.10
2023-03-23T23:13:33.123Z,14.53
2023-03-23T23:16:01.531Z,16.73
2023-03-23T23:18:30.418Z,14.87
2023-03-23T23:20:59.113Z,12.03
2023-03-23T23:23:26.968Z,14.23
2023-03-23T23:25:54.206Z,10.73
2023-03-23T23:28:22.855Z,17.03
2023-03-23T23:30:50.954Z,17.50
2023-03-23T23:33:18.930Z,15.80
2023-03-23T23:35:46.302Z,18.13
2023-03-23T23:38:13.677Z,17.40
2023-03-23T23:40:41.503Z,17.70
2023-03-23T23:43:09.416Z,19.93
2023-03-23T23:45:36.754Z,22.47
2023-03-23T23:48:05.735Z,16.87
2023-03-23T23:50:33.336Z,20.20
2023-03-23T23:53:00.553Z,22.93
2023-03-23T23:55:28.296Z,23.83
2023-03-23T23:57:56.158Z,23.73
